createdAt,value
2023-03-22T00:00:18.879Z,48.59
2023-03-22T00:01:21.531Z,48.63
2023-03-22T00:02:23.416Z,48.48
2023-03-22T00:03:25.146Z,48.48
2023-03-22T00:04:26.983Z,48.67
2023-03-22T00:05:28.778Z,48.63
2023-03-22T00:06:30.589Z,48.67
2023-03-22T00:07:32.379Z,48.69
2023-03-22T00:08:34.180Z,48.73
2023-03-22T00:09:36.028Z,48.84
2023-03-22T00:10:38.238Z,48.87
2023-03-22T00:11:40.244Z,48.93
2023-03-22T00:12:42.061Z,48.95
2023-03-22T00:13:43.846Z,49.02
2023-03-22T00:14:45.674Z,49.04
2023-03-22T00:15:47.487Z,49.08
2023-03-22T00:16:49.467Z,49.06
2023-03-22T00:17:51.284Z,49.05
2023-03-22T00:18:53.101Z,49.05
2023-03-22T00:19:54.986Z,49.07
2023-03-22T00:20:56.798Z,49.08
2023-03-22T00:21:58.604Z,49.07
2023-03-22T00:23:00.418Z,49.07
2023-03-22T00:24:02.219Z,49.05
2023-03-22T00:25:04.051Z,49.05
2023-03-22T00:26:06.271Z,49.03
2023-03-22T00:27:08.069Z,49.05
2023-03-22T00:28:09.866Z,49.04
2023-03-22T00:29:11.674Z,49.03
2023-03-22T00:30:13.529Z,49.04
2023-03-22T00:31:15.349Z,49.02
2023-03-22T00:32:17.145Z,49.05
2023-03-22T00:33:18.954Z,49.03
2023-03-22T00:34:20.753Z,49.04
2023-03-22T00:35:22.625Z,49.02
2023-03-22T00:36:24.420Z,49.00
2023-03-22T00:37:26.207Z,49.00
2023-03-22T00:38:41.414Z,48.99
2023-03-22T00:39:31.649Z,48.94
2023-03-22T00:40:33.500Z,48.92
2023-03-22T00:41:35.286Z,48.93
2023-03-22T00:42:37.092Z,48.94
2023-03-22T00:43:38.890Z,48.93
2023-03-22T00:44:40.713Z,48.95
2023-03-22T00:45:42.471Z,48.93
2023-03-22T00:46:44.261Z,48.92
2023-03-22T00:47:46.146Z,48.88
2023-03-22T00:48:48.115Z,48.84
2023-03-22T00:49:49.920Z,48.86
2023-03-22T00:50:51.740Z,48.87
2023-03-22T00:51:53.529Z,48.90
2023-03-22T00:52:55.340Z,48.92
2023-03-22T00:53:57.167Z,48.92
2023-03-22T00:54:58.966Z,48.95
2023-03-22T00:56:00.815Z,48.91
2023-03-22T00:57:02.609Z,48.90
2023-03-22T00:58:04.409Z,48.86
2023-03-22T00:59:06.217Z,48.86
2023-03-22T01:00:08.116Z,48.86
2023-03-22T01:01:10.069Z,48.89
2023-03-22T01:02:11.810Z,48.88
2023-03-22T01:03:13.665Z,48.90
2023-03-22T01:04:15.452Z,48.94
2023-03-22T01:05:17.119Z,48.99
2023-03-22T01:06:19.022Z,49.00
2023-03-22T01:07:20.814Z,49.01
2023-03-22T01:08:22.720Z,49.02
2023-03-22T01:09:24.527Z,49.04
2023-03-22T01:10:26.318Z,49.01
2023-03-22T01:11:28.169Z,49.04
2023-03-22T01:12:29.967Z,49.07
2023-03-22T01:13:31.780Z,49.08
2023-03-22T01:14:33.570Z,49.09
2023-03-22T01:15:35.379Z,49.10
2023-03-22T01:16:37.264Z,49.12
2023-03-22T01:17:39.133Z,49.15
2023-03-22T01:18:40.925Z,49.14
2023-03-22T01:19:42.721Z,49.08
2023-03-22T01:20:44.528Z,49.04
2023-03-22T01:21:46.379Z,49.01
2023-03-22T01:22:48.175Z,48.96
2023-03-22T01:23:49.970Z,48.92
2023-03-22T01:24:51.773Z,48.88
2023-03-22T01:25:53.565Z,48.89
2023-03-22T01:26:55.414Z,48.86
2023-03-22T01:27:57.233Z,48.90
2023-03-22T01:28:59.026Z,48.91
2023-03-22T01:30:00.830Z,48.92
2023-03-22T01:31:02.789Z,48.91
2023-03-22T01:32:04.704Z,48.92
2023-03-22T01:33:06.504Z,48.92
2023-03-22T01:34:08.299Z,48.88
2023-03-22T01:35:10.119Z,48.85
2023-03-22T01:36:12.370Z,48.85
2023-03-22T01:37:14.179Z,48.88
2023-03-22T01:38:15.982Z,48.88
2023-03-22T01:39:17.681Z,48.89
2023-03-22T01:40:19.493Z,48.89
2023-03-22T01:41:21.284Z,48.92
2023-03-22T01:42:23.111Z,48.93
2023-03-22T01:43:24.937Z,48.92
2023-03-22T01:44:26.737Z,48.95
2023-03-22T01:45:28.539Z,48.93
2023-03-22T01:46:30.476Z,48.95
2023-03-22T01:47:32.373Z,48.97
2023-03-22T01:48:34.222Z,48.97
2023-03-22T01:49:35.991Z,48.96
2023-03-22T01:50:37.980Z,48.94
2023-03-22T01:51:40.450Z,48.95
2023-03-22T01:52:43.474Z,48.95
2023-03-22T01:53:45.269Z,48.97
2023-03-22T01:54:47.069Z,48.95
2023-03-22T01:55:48.866Z,48.93
2023-03-22T01:56:50.679Z,48.88
2023-03-22T01:57:52.535Z,48.86
2023-03-22T01:58:54.324Z,48.89
2023-03-22T01:59:56.122Z,48.93
2023-03-22T02:00:57.920Z,48.98
2023-03-22T02:01:59.740Z,49.03
2023-03-22T02:03:01.637Z,49.05
2023-03-22T02:04:03.553Z,49.08
2023-03-22T02:05:05.356Z,49.10
2023-03-22T02:06:07.459Z,49.09
2023-03-22T02:07:09.269Z,49.07
2023-03-22T02:08:11.113Z,49.05
2023-03-22T02:09:12.936Z,49.03
2023-03-22T02:10:14.857Z,48.96
2023-03-22T02:11:16.652Z,48.87
2023-03-22T02:12:18.453Z,48.84
2023-03-22T02:13:20.302Z,48.79
2023-03-22T02:14:23.433Z,48.76
2023-03-22T02:15:25.459Z,48.75
2023-03-22T02:16:27.280Z,48.76
2023-03-22T02:17:29.086Z,48.77
2023-03-22T02:18:30.932Z,48.76
2023-03-22T02:19:32.741Z,48.76
2023-03-22T02:20:34.652Z,48.74
2023-03-22T02:21:36.463Z,48.73
2023-03-22T02:22:38.292Z,48.73
2023-03-22T02:23:40.136Z,48.71
2023-03-22T02:24:43.933Z,48.71
2023-03-22T02:25:45.460Z,48.71
2023-03-22T02:26:47.394Z,48.73
2023-03-22T02:27:49.175Z,48.76
2023-03-22T02:28:51.030Z,48.79
2023-03-22T02:29:52.833Z,48.81
2023-03-22T02:30:54.676Z,48.79
2023-03-22T02:31:56.456Z,48.81
2023-03-22T02:32:58.254Z,48.81
2023-03-22T02:34:00.104Z,48.79
2023-03-22T02:35:01.927Z,48.79
2023-03-22T02:36:03.729Z,48.79
2023-03-22T02:37:05.561Z,48.75
2023-03-22T02:38:07.370Z,48.70
2023-03-22T02:39:09.205Z,48.68
2023-03-22T02:40:11.523Z,48.68
2023-03-22T02:41:13.328Z,48.68
2023-03-22T02:42:15.131Z,48.67
2023-03-22T02:43:16.939Z,48.65
2023-03-22T02:44:18.763Z,48.62
2023-03-22T02:45:20.610Z,48.62
2023-03-22T02:46:22.511Z,48.58
2023-03-22T02:47:24.295Z,48.59
2023-03-22T02:48:26.197Z,48.59
2023-03-22T02:49:28.066Z,48.63
2023-03-22T02:50:29.867Z,48.64
2023-03-22T02:51:31.680Z,48.65
2023-03-22T02:52:33.499Z,48.65
2023-03-22T02:53:35.299Z,48.66
2023-03-22T02:54:37.132Z,48.62
2023-03-22T02:55:38.962Z,48.59
2023-03-22T02:56:40.787Z,48.57
2023-03-22T02:57:42.610Z,48.53
2023-03-22T02:58:44.411Z,48.54
2023-03-22T02:59:46.262Z,48.55
2023-03-22T03:00:48.086Z,48.56
2023-03-22T03:01:49.983Z,48.57
2023-03-22T03:02:51.801Z,48.57
2023-03-22T03:03:53.614Z,48.55
2023-03-22T03:04:55.468Z,48.50
2023-03-22T03:05:57.275Z,48.47
2023-03-22T03:06:59.084Z,48.44
2023-03-22T03:08:00.886Z,48.40
2023-03-22T03:09:02.725Z,48.37
2023-03-22T03:10:04.545Z,48.28
2023-03-22T03:11:06.360Z,48.23
2023-03-22T03:12:08.160Z,48.18
2023-03-22T03:13:09.969Z,48.16
2023-03-22T03:14:11.983Z,48.16
2023-03-22T03:15:13.837Z,48.08
2023-03-22T03:16:15.946Z,48.04
2023-03-22T03:17:17.735Z,48.01
2023-03-22T03:18:19.575Z,48.01
2023-03-22T03:19:21.387Z,47.97
2023-03-22T03:20:23.532Z,47.99
2023-03-22T03:21:25.802Z,47.94
2023-03-22T03:22:27.636Z,47.94
2023-03-22T03:23:29.451Z,47.92
2023-03-22T03:24:31.265Z,47.87
2023-03-22T03:25:33.150Z,47.89
2023-03-22T03:26:34.974Z,47.87
2023-03-22T03:27:36.857Z,47.84
2023-03-22T03:28:38.666Z,47.83
2023-03-22T03:29:40.475Z,47.83
2023-03-22T03:30:42.315Z,47.80
2023-03-22T03:31:44.199Z,47.80
2023-03-22T03:32:46.044Z,47.81
2023-03-22T03:33:47.829Z,47.82
2023-03-22T03:34:49.726Z,47.83
2023-03-22T03:35:51.610Z,47.82
2023-03-22T03:36:53.429Z,47.83
2023-03-22T03:37:55.223Z,47.84
2023-03-22T03:38:57.036Z,47.85
2023-03-22T03:39:58.830Z,47.82
2023-03-22T03:41:00.679Z,47.82
2023-03-22T03:42:02.504Z,47.86
2023-03-22T03:43:04.296Z,47.88
2023-03-22T03:44:06.096Z,47.90
2023-03-22T03:45:07.900Z,47.94
2023-03-22T03:46:09.905Z,47.94
2023-03-22T03:47:11.651Z,47.97
2023-03-22T03:48:13.510Z,48.01
2023-03-22T03:49:15.423Z,48.01
2023-03-22T03:50:17.662Z,47.99
2023-03-22T03:51:19.492Z,47.97
2023-03-22T03:52:21.305Z,47.96
2023-03-22T03:53:23.170Z,47.90
2023-03-22T03:54:24.991Z,47.87
2023-03-22T03:55:26.783Z,47.85
2023-03-22T03:56:28.748Z,47.84
2023-03-22T03:57:30.557Z,47.81
2023-03-22T03:58:32.479Z,47.79
2023-03-22T03:59:34.265Z,47.80
2023-03-22T04:00:36.079Z,47.80
2023-03-22T04:01:37.939Z,47.80
2023-03-22T04:02:39.838Z,47.79
2023-03-22T04:03:41.659Z,47.78
2023-03-22T04:04:43.511Z,47.77
2023-03-22T04:05:45.290Z,47.77
2023-03-22T04:06:47.241Z,47.80
2023-03-22T04:07:49.046Z,47.85
2023-03-22T04:08:50.867Z,47.91
2023-03-22T04:09:52.690Z,47.93
2023-03-22T04:10:54.589Z,47.98
2023-03-22T04:11:56.438Z,48.00
2023-03-22T04:12:58.245Z,48.04
2023-03-22T04:14:00.078Z,48.09
2023-03-22T04:15:01.873Z,48.16
2023-03-22T04:16:03.677Z,48.23
2023-03-22T04:17:05.505Z,48.32
2023-03-22T04:18:07.315Z,48.34
2023-03-22T04:19:09.112Z,48.40
2023-03-22T04:20:11.737Z,48.46
2023-03-22T04:21:13.521Z,48.47
2023-03-22T04:22:15.352Z,48.52
2023-03-22T04:23:17.186Z,48.57
2023-03-22T04:24:18.979Z,48.62
2023-03-22T04:25:21.773Z,48.68
2023-03-22T04:26:26.177Z,48.78
2023-03-22T04:27:27.228Z,48.88
2023-03-22T04:28:29.024Z,48.99
2023-03-22T04:29:30.832Z,49.05
2023-03-22T04:30:32.625Z,49.10
2023-03-22T04:31:34.429Z,49.14
2023-03-22T04:32:36.266Z,49.16
2023-03-22T04:33:38.097Z,49.21
2023-03-22T04:34:39.903Z,49.26
2023-03-22T04:35:41.724Z,49.35
2023-03-22T04:36:43.506Z,49.44
2023-03-22T04:37:45.354Z,49.51
2023-03-22T04:38:47.159Z,49.56
2023-03-22T04:39:48.952Z,49.60
2023-03-22T04:40:50.855Z,49.69
2023-03-22T04:41:52.660Z,49.78
2023-03-22T04:42:54.552Z,49.85
2023-03-22T04:43:56.362Z,49.91
2023-03-22T04:44:58.155Z,49.95
2023-03-22T04:46:00.004Z,50.00
2023-03-22T04:47:01.793Z,50.04
2023-03-22T04:48:03.673Z,50.07
2023-03-22T04:49:05.431Z,50.14
2023-03-22T04:50:07.648Z,50.17
2023-03-22T04:51:09.450Z,50.18
2023-03-22T04:52:11.241Z,50.20
2023-03-22T04:53:13.071Z,50.25
2023-03-22T04:54:14.884Z,50.30
2023-03-22T04:55:16.703Z,50.29
2023-03-22T04:56:18.502Z,50.30
2023-03-22T04:57:20.306Z,50.24
2023-03-22T04:58:22.169Z,50.20
2023-03-22T04:59:23.938Z,50.17
2023-03-22T05:00:25.745Z,50.15
2023-03-22T05:01:27.621Z,50.20
2023-03-22T05:02:29.461Z,50.27
2023-03-22T05:03:31.289Z,50.28
2023-03-22T05:04:32.990Z,50.29
2023-03-22T05:05:34.816Z,50.33
2023-03-22T05:06:36.602Z,50.33
2023-03-22T05:07:38.395Z,50.31
2023-03-22T05:08:40.230Z,50.30
2023-03-22T05:09:42.056Z,50.34
2023-03-22T05:10:43.858Z,50.44
2023-03-22T05:11:45.684Z,50.53
2023-03-22T05:12:47.486Z,50.64
2023-03-22T05:13:49.324Z,50.65
2023-03-22T05:14:51.164Z,50.66
2023-03-22T05:15:52.994Z,50.62
2023-03-22T05:16:54.847Z,50.58
2023-03-22T05:17:56.633Z,50.57
2023-03-22T05:18:58.475Z,50.51
2023-03-22T05:20:00.281Z,50.45
2023-03-22T05:21:02.094Z,50.39
2023-03-22T05:22:03.880Z,50.36
2023-03-22T05:23:05.576Z,50.22
2023-03-22T05:24:07.415Z,50.10
2023-03-22T05:25:09.222Z,50.08
2023-03-22T05:26:11.342Z,50.08
2023-03-22T05:27:13.130Z,50.00
2023-03-22T05:28:14.928Z,49.87
2023-03-22T05:29:16.785Z,49.83
2023-03-22T05:30:18.703Z,49.83
2023-03-22T05:31:20.546Z,49.83
2023-03-22T05:32:22.298Z,49.88
2023-03-22T05:33:24.130Z,49.92
2023-03-22T05:34:25.959Z,49.97
2023-03-22T05:35:27.761Z,50.04
2023-03-22T05:36:29.562Z,50.13
2023-03-22T05:37:31.358Z,50.28
2023-03-22T05:38:33.176Z,50.32
2023-03-22T05:39:35.021Z,50.33
2023-03-22T05:40:36.833Z,50.38
2023-03-22T05:41:38.628Z,50.35
2023-03-22T05:42:40.431Z,50.25
2023-03-22T05:43:42.243Z,50.13
2023-03-22T05:44:44.097Z,50.05
2023-03-22T05:45:46.014Z,49.99
2023-03-22T05:46:47.835Z,49.86
2023-03-22T05:47:51.546Z,49.74
2023-03-22T05:48:53.208Z,49.73
2023-03-22T05:49:55.056Z,49.67
2023-03-22T05:50:57.172Z,49.65
2023-03-22T05:51:58.975Z,49.62
2023-03-22T05:53:00.797Z,49.58
2023-03-22T05:54:02.618Z,49.58
2023-03-22T05:55:04.483Z,49.56
2023-03-22T05:56:06.608Z,49.54
2023-03-22T05:57:08.419Z,49.51
2023-03-22T05:58:10.211Z,49.45
2023-03-22T05:59:12.017Z,49.41
2023-03-22T06:00:13.859Z,49.41
2023-03-22T06:01:15.680Z,49.42
2023-03-22T06:02:17.564Z,49.32
2023-03-22T06:03:19.406Z,49.20
2023-03-22T06:04:21.193Z,49.14
2023-03-22T06:05:23.335Z,49.12
2023-03-22T06:06:25.162Z,49.11
2023-03-22T06:07:26.961Z,48.97
2023-03-22T06:08:28.772Z,48.86
2023-03-22T06:09:30.590Z,48.74
2023-03-22T06:10:32.622Z,48.71
2023-03-22T06:11:34.430Z,48.70
2023-03-22T06:12:36.236Z,48.63
2023-03-22T06:13:38.052Z,48.54
2023-03-22T06:14:39.839Z,48.43
2023-03-22T06:15:41.682Z,48.28
2023-03-22T06:16:43.499Z,48.17
2023-03-22T06:17:45.289Z,48.10
2023-03-22T06:18:47.102Z,48.14
2023-03-22T06:19:48.893Z,48.16
2023-03-22T06:20:51.047Z,48.23
2023-03-22T06:21:52.908Z,48.09
2023-03-22T06:22:54.738Z,47.97
2023-03-22T06:23:56.539Z,47.75
2023-03-22T06:24:58.360Z,47.56
2023-03-22T06:26:00.260Z,47.44
2023-03-22T06:27:02.079Z,47.35
2023-03-22T06:28:03.885Z,47.33
2023-03-22T06:29:05.685Z,47.42
2023-03-22T06:30:07.797Z,47.48
2023-03-22T06:31:09.688Z,47.46
2023-03-22T06:32:11.545Z,47.56
2023-03-22T06:33:13.349Z,47.53
2023-03-22T06:34:15.212Z,47.39
2023-03-22T06:35:17.065Z,47.24
2023-03-22T06:36:19.049Z,47.07
2023-03-22T06:37:20.867Z,47.00
2023-03-22T06:38:22.660Z,46.93
2023-03-22T06:39:24.469Z,46.93
2023-03-22T06:40:26.297Z,47.01
2023-03-22T06:41:28.247Z,46.90
2023-03-22T06:42:30.062Z,46.83
2023-03-22T06:43:31.757Z,46.73
2023-03-22T06:44:33.637Z,46.77
2023-03-22T06:45:35.423Z,46.73
2023-03-22T06:46:37.421Z,46.71
2023-03-22T06:47:39.237Z,46.78
2023-03-22T06:48:41.033Z,46.74
2023-03-22T06:49:42.868Z,46.71
2023-03-22T06:50:44.862Z,46.64
2023-03-22T06:51:46.931Z,46.60
2023-03-22T06:52:48.728Z,46.60
2023-03-22T06:53:50.572Z,46.46
2023-03-22T06:54:52.381Z,46.26
2023-03-22T06:55:55.430Z,46.18
2023-03-22T06:56:57.556Z,46.16
2023-03-22T06:57:59.385Z,46.19
2023-03-22T06:59:01.190Z,46.34
2023-03-22T07:00:03.091Z,46.26
2023-03-22T07:01:04.932Z,46.25
2023-03-22T07:02:06.811Z,46.23
2023-03-22T07:03:08.644Z,46.23
2023-03-22T07:04:10.500Z,46.32
2023-03-22T07:05:12.271Z,46.41
2023-03-22T07:06:14.186Z,46.48
2023-03-22T07:07:16.022Z,46.51
2023-03-22T07:08:17.852Z,46.52
2023-03-22T07:09:19.693Z,46.60
2023-03-22T07:10:21.556Z,46.63
2023-03-22T07:11:23.401Z,46.77
2023-03-22T07:12:25.259Z,46.91
2023-03-22T07:13:27.388Z,47.09
2023-03-22T07:14:29.816Z,47.27
2023-03-22T07:15:32.155Z,47.29
2023-03-22T07:16:34.059Z,47.27
2023-03-22T07:17:35.878Z,47.43
2023-03-22T07:18:37.829Z,47.76
2023-03-22T07:19:39.665Z,47.76
2023-03-22T07:20:41.901Z,47.58
2023-03-22T07:21:43.813Z,47.52
2023-03-22T07:22:45.665Z,47.49
2023-03-22T07:23:47.481Z,47.50
2023-03-22T07:24:56.512Z,47.28
2023-03-22T07:25:52.905Z,46.94
2023-03-22T07:26:54.817Z,46.76
2023-03-22T07:27:56.667Z,46.91
2023-03-22T07:28:58.477Z,46.87
2023-03-22T07:30:00.296Z,46.72
2023-03-22T07:31:02.104Z,46.52
2023-03-22T07:32:04.030Z,46.47
2023-03-22T07:33:05.892Z,46.57
2023-03-22T07:34:07.756Z,46.50
2023-03-22T07:35:09.570Z,46.21
2023-03-22T07:36:11.536Z,46.13
2023-03-22T07:37:13.322Z,46.08
2023-03-22T07:38:16.337Z,45.95
2023-03-22T07:39:18.132Z,45.70
2023-03-22T07:40:20.006Z,45.71
2023-03-22T07:41:21.816Z,45.67
2023-03-22T07:42:23.738Z,45.56
2023-03-22T07:43:25.568Z,45.61
2023-03-22T07:44:27.373Z,45.52
2023-03-22T07:45:29.218Z,45.55
2023-03-22T07:46:31.112Z,45.90
2023-03-22T07:47:40.687Z,46.02
2023-03-22T07:48:36.543Z,45.95
2023-03-22T07:49:38.341Z,45.68
2023-03-22T07:50:40.644Z,45.50
2023-03-22T07:51:42.815Z,45.77
2023-03-22T07:52:44.609Z,45.76
2023-03-22T07:53:46.448Z,45.85
2023-03-22T07:54:48.235Z,45.81
2023-03-22T07:55:50.045Z,45.57
2023-03-22T07:56:51.851Z,45.36
2023-03-22T07:57:53.709Z,45.13
2023-03-22T07:58:55.581Z,44.83
2023-03-22T07:59:57.483Z,44.65
2023-03-22T08:00:59.365Z,44.47
2023-03-22T08:02:01.416Z,44.50
2023-03-22T08:03:03.358Z,44.57
2023-03-22T08:04:05.330Z,44.55
2023-03-22T08:05:07.104Z,44.31
2023-03-22T08:06:09.819Z,43.84
2023-03-22T08:07:11.624Z,43.50
2023-03-22T08:08:13.436Z,43.62
2023-03-22T08:09:15.267Z,43.91
2023-03-22T08:10:17.199Z,44.26
2023-03-22T08:11:18.996Z,44.30
2023-03-22T08:12:20.798Z,44.26
2023-03-22T08:13:22.626Z,44.25
2023-03-22T08:14:34.056Z,44.16
2023-03-22T08:15:28.135Z,44.16
2023-03-22T08:16:30.016Z,44.06
2023-03-22T08:17:31.862Z,43.76
2023-03-22T08:18:33.701Z,43.66
2023-03-22T08:19:35.512Z,43.60
2023-03-22T08:20:37.302Z,43.63
2023-03-22T08:21:39.224Z,43.60
2023-03-22T08:22:41.191Z,43.70
2023-03-22T08:23:42.975Z,43.94
2023-03-22T08:24:44.938Z,43.91
2023-03-22T08:25:46.726Z,43.74
2023-03-22T08:26:48.732Z,43.77
2023-03-22T08:27:50.538Z,43.90
2023-03-22T08:28:52.361Z,43.91
2023-03-22T08:29:54.220Z,43.74
2023-03-22T08:30:56.055Z,43.55
2023-03-22T08:31:57.979Z,43.60
2023-03-22T08:32:59.849Z,43.71
2023-03-22T08:34:01.652Z,43.65
2023-03-22T08:35:03.504Z,43.42
2023-03-22T08:36:05.408Z,42.90
2023-03-22T08:37:07.211Z,42.68
2023-03-22T08:38:09.042Z,42.55
2023-03-22T08:39:10.880Z,42.70
2023-03-22T08:40:12.868Z,42.62
2023-03-22T08:41:14.708Z,42.53
2023-03-22T08:42:16.531Z,42.34
2023-03-22T08:43:18.360Z,42.35
2023-03-22T08:44:20.167Z,42.47
2023-03-22T08:45:21.988Z,42.46
2023-03-22T08:46:23.799Z,42.37
2023-03-22T08:47:25.681Z,42.21
2023-03-22T08:48:27.508Z,41.98
2023-03-22T08:49:29.366Z,41.80
2023-03-22T08:50:31.196Z,41.93
2023-03-22T08:51:33.002Z,42.03
2023-03-22T08:52:34.805Z,41.98
2023-03-22T08:53:36.595Z,41.96
2023-03-22T08:54:38.411Z,41.98
2023-03-22T08:55:40.455Z,41.87
2023-03-22T08:56:42.445Z,42.02
2023-03-22T08:57:44.249Z,42.17
2023-03-22T08:58:46.058Z,42.29
2023-03-22T08:59:47.867Z,42.20
2023-03-22T09:00:50.130Z,41.97
2023-03-22T09:01:52.114Z,41.92
2023-03-22T09:02:53.926Z,41.94
2023-03-22T09:03:55.724Z,41.86
2023-03-22T09:04:57.548Z,41.74
2023-03-22T09:05:59.401Z,41.38
2023-03-22T09:07:01.349Z,41.13
2023-03-22T09:08:06.546Z,41.13
2023-03-22T09:09:06.789Z,41.18
2023-03-22T09:10:08.708Z,41.30
2023-03-22T09:11:10.564Z,41.50
2023-03-22T09:12:12.396Z,41.73
2023-03-22T09:13:14.192Z,41.85
2023-03-22T09:14:15.996Z,41.59
2023-03-22T09:15:17.832Z,41.47
2023-03-22T09:16:19.757Z,41.57
2023-03-22T09:17:22.566Z,41.46
2023-03-22T09:18:24.453Z,41.48
2023-03-22T09:19:26.249Z,41.40
2023-03-22T09:20:28.218Z,40.94
2023-03-22T09:21:30.066Z,40.74
2023-03-22T09:22:31.885Z,40.48
2023-03-22T09:23:33.693Z,40.51
2023-03-22T09:24:35.499Z,40.76
2023-03-22T09:25:37.296Z,40.44
2023-03-22T09:26:39.189Z,40.59
2023-03-22T09:27:41.010Z,40.53
2023-03-22T09:28:42.876Z,40.63
2023-03-22T09:29:44.617Z,40.96
2023-03-22T09:30:46.485Z,40.19
2023-03-22T09:31:48.394Z,40.14
2023-03-22T09:32:50.220Z,40.24
2023-03-22T09:33:51.984Z,40.27
2023-03-22T09:34:53.802Z,40.37
2023-03-22T09:35:55.639Z,40.41
2023-03-22T09:36:58.519Z,40.43
2023-03-22T09:38:00.405Z,40.30
2023-03-22T09:39:02.203Z,40.21
2023-03-22T09:40:04.002Z,39.95
2023-03-22T09:41:05.806Z,39.84
2023-03-22T09:42:07.626Z,39.76
2023-03-22T09:43:09.528Z,39.71
2023-03-22T09:44:11.326Z,39.71
2023-03-22T09:45:13.069Z,39.51
2023-03-22T09:46:15.528Z,39.58
2023-03-22T09:47:17.463Z,39.61
2023-03-22T09:48:19.286Z,39.63
2023-03-22T09:49:21.159Z,39.66
2023-03-22T09:50:22.949Z,39.99
2023-03-22T09:51:24.755Z,39.64
2023-03-22T09:52:26.630Z,39.19
2023-03-22T09:53:28.410Z,39.46
2023-03-22T09:54:30.203Z,39.63
2023-03-22T09:55:32.195Z,39.79
2023-03-22T09:56:35.113Z,39.34
2023-03-22T09:57:37.201Z,39.56
2023-03-22T09:58:39.057Z,39.74
2023-03-22T09:59:40.842Z,39.80
2023-03-22T10:00:42.803Z,39.65
2023-03-22T10:01:44.852Z,39.54
2023-03-22T10:02:46.885Z,39.65
2023-03-22T10:03:48.706Z,39.26
2023-03-22T10:04:50.586Z,39.51
2023-03-22T10:05:52.393Z,39.62
2023-03-22T10:06:54.206Z,39.25
2023-03-22T10:07:56.041Z,39.13
2023-03-22T10:08:57.849Z,39.01
2023-03-22T10:09:59.659Z,39.35
2023-03-22T10:11:01.511Z,39.29
2023-03-22T10:12:03.162Z,39.41
2023-03-22T10:13:04.988Z,39.50
2023-03-22T10:14:06.784Z,39.32
2023-03-22T10:15:08.646Z,38.96
2023-03-22T10:16:10.619Z,38.96
2023-03-22T10:17:12.494Z,38.87
2023-03-22T10:18:14.318Z,38.34
2023-03-22T10:19:16.121Z,38.60
2023-03-22T10:20:17.927Z,38.40
2023-03-22T10:21:19.764Z,38.21
2023-03-22T10:22:21.563Z,38.32
2023-03-22T10:23:23.476Z,38.52
2023-03-22T10:24:25.383Z,38.34
2023-03-22T10:25:27.307Z,38.00
2023-03-22T10:26:29.152Z,38.04
2023-03-22T10:27:30.919Z,38.12
2023-03-22T10:28:32.788Z,37.96
2023-03-22T10:29:34.606Z,37.73
2023-03-22T10:30:36.419Z,37.84
2023-03-22T10:31:38.266Z,37.91
2023-03-22T10:32:54.718Z,37.79
2023-03-22T10:33:44.550Z,37.77
2023-03-22T10:34:46.431Z,37.60
2023-03-22T10:35:48.311Z,37.69
2023-03-22T10:36:50.114Z,37.49
2023-03-22T10:37:51.953Z,37.72
2023-03-22T10:38:53.808Z,37.92
2023-03-22T10:39:55.615Z,37.89
2023-03-22T10:40:57.429Z,37.77
2023-03-22T10:41:59.227Z,37.65
2023-03-22T10:43:01.059Z,37.59
2023-03-22T10:44:02.899Z,37.47
2023-03-22T10:45:04.711Z,37.29
2023-03-22T10:46:06.793Z,36.99
2023-03-22T10:47:08.728Z,36.86
2023-03-22T10:48:10.677Z,37.02
2023-03-22T10:49:12.442Z,37.16
2023-03-22T10:50:14.552Z,36.90
2023-03-22T10:51:16.645Z,37.23
2023-03-22T10:52:18.450Z,37.29
2023-03-22T10:53:20.246Z,37.35
2023-03-22T10:54:22.105Z,36.97
2023-03-22T10:55:23.902Z,37.34
2023-03-22T10:56:25.761Z,37.19
2023-03-22T10:57:27.558Z,37.04
2023-03-22T10:58:29.370Z,37.11
2023-03-22T10:59:31.204Z,37.25
2023-03-22T11:00:33.057Z,37.35
2023-03-22T11:01:34.900Z,37.41
2023-03-22T11:02:36.834Z,37.38
2023-03-22T11:03:38.801Z,37.17
2023-03-22T11:04:40.595Z,37.00
2023-03-22T11:05:42.530Z,36.42
2023-03-22T11:06:44.400Z,36.87
2023-03-22T11:07:46.190Z,37.05
2023-03-22T11:08:47.980Z,36.99
2023-03-22T11:09:49.801Z,37.16
2023-03-22T11:10:51.980Z,36.91
2023-03-22T11:11:53.823Z,36.79
2023-03-22T11:12:55.615Z,36.74
2023-03-22T11:13:57.411Z,36.38
2023-03-22T11:14:59.233Z,36.66
2023-03-22T11:16:01.068Z,36.54
2023-03-22T11:17:02.816Z,36.38
2023-03-22T11:18:04.616Z,36.67
2023-03-22T11:19:06.411Z,36.74
2023-03-22T11:20:08.257Z,36.75
2023-03-22T11:21:10.009Z,36.65
2023-03-22T11:22:11.809Z,36.32
2023-03-22T11:23:13.606Z,36.26
2023-03-22T11:24:15.401Z,35.87
2023-03-22T11:25:17.213Z,36.31
2023-03-22T11:26:19.044Z,36.45
2023-03-22T11:27:20.865Z,36.67
2023-03-22T11:28:22.651Z,36.71
2023-03-22T11:29:24.530Z,36.70
2023-03-22T11:30:26.781Z,36.65
2023-03-22T11:31:28.598Z,36.27
2023-03-22T11:32:30.467Z,35.99
2023-03-22T11:33:32.284Z,36.11
2023-03-22T11:34:34.072Z,36.32
2023-03-22T11:35:35.918Z,36.35
2023-03-22T11:36:37.684Z,36.43
2023-03-22T11:37:39.489Z,36.23
2023-03-22T11:38:41.275Z,36.24
2023-03-22T11:39:43.079Z,36.09
2023-03-22T11:40:44.903Z,36.02
2023-03-22T11:41:46.687Z,35.80
2023-03-22T11:42:48.564Z,35.68
2023-03-22T11:43:51.422Z,35.85
2023-03-22T11:44:53.761Z,35.83
2023-03-22T11:45:55.614Z,35.85
2023-03-22T11:46:57.397Z,35.98
2023-03-22T11:47:59.263Z,36.16
2023-03-22T11:49:01.510Z,36.10
2023-03-22T11:50:03.489Z,35.83
2023-03-22T11:51:05.301Z,35.64
2023-03-22T11:52:07.104Z,35.75
2023-03-22T11:53:08.916Z,35.86
2023-03-22T11:54:10.682Z,36.02
2023-03-22T11:55:12.496Z,36.27
2023-03-22T11:56:14.332Z,36.21
2023-03-22T11:57:16.118Z,36.10
2023-03-22T11:58:17.912Z,36.00
2023-03-22T11:59:19.704Z,36.14
2023-03-22T12:00:21.529Z,36.27
2023-03-22T12:01:23.324Z,35.64
2023-03-22T12:02:25.230Z,35.83
2023-03-22T12:03:27.185Z,35.97
2023-03-22T12:04:29.001Z,35.81
2023-03-22T12:05:30.793Z,35.80
2023-03-22T12:06:32.857Z,35.91
2023-03-22T12:07:34.627Z,35.93
2023-03-22T12:08:36.429Z,35.86
2023-03-22T12:09:38.218Z,35.80
2023-03-22T12:10:40.031Z,35.55
2023-03-22T12:11:41.838Z,35.29
2023-03-22T12:12:43.627Z,35.69
2023-03-22T12:13:45.474Z,35.75
2023-03-22T12:14:47.382Z,35.86
2023-03-22T12:15:49.196Z,35.84
2023-03-22T12:16:51.127Z,35.77
2023-03-22T12:17:53.030Z,35.80
2023-03-22T12:18:54.903Z,35.98
2023-03-22T12:19:56.690Z,36.00
2023-03-22T12:20:58.795Z,36.06
2023-03-22T12:22:00.636Z,36.07
2023-03-22T12:23:02.439Z,36.13
2023-03-22T12:24:04.231Z,36.13
2023-03-22T12:25:06.018Z,35.98
2023-03-22T12:26:08.517Z,35.74
2023-03-22T12:27:10.350Z,35.50
2023-03-22T12:28:12.152Z,35.38
2023-03-22T12:29:13.936Z,35.29
2023-03-22T12:30:15.728Z,35.04
2023-03-22T12:31:17.601Z,34.78
2023-03-22T12:32:19.525Z,34.79
2023-03-22T12:33:21.362Z,35.04
2023-03-22T12:34:23.141Z,35.18
2023-03-22T12:35:24.938Z,35.35
2023-03-22T12:36:26.766Z,35.48
2023-03-22T12:37:30.096Z,35.75
2023-03-22T12:38:32.180Z,35.67
2023-03-22T12:39:34.300Z,35.54
2023-03-22T12:40:36.091Z,35.79
2023-03-22T12:41:37.893Z,35.87
2023-03-22T12:42:47.922Z,35.93
2023-03-22T12:43:43.321Z,35.88
2023-03-22T12:44:55.515Z,35.64
2023-03-22T12:45:48.724Z,35.29
2023-03-22T12:46:50.638Z,34.78
2023-03-22T12:47:52.695Z,35.37
2023-03-22T12:48:54.762Z,35.90
2023-03-22T12:49:56.534Z,35.45
2023-03-22T12:50:58.436Z,35.25
2023-03-22T12:52:00.226Z,35.76
2023-03-22T12:53:02.044Z,35.95
2023-03-22T12:54:03.721Z,36.13
2023-03-22T12:55:05.517Z,36.19
2023-03-22T12:56:07.830Z,35.81
2023-03-22T12:57:09.611Z,35.85
2023-03-22T12:58:11.433Z,36.03
2023-03-22T12:59:13.239Z,36.22
2023-03-22T13:00:15.149Z,36.24
2023-03-22T13:01:17.146Z,36.10
2023-03-22T13:02:18.958Z,35.78
2023-03-22T13:03:20.912Z,35.61
2023-03-22T13:04:22.808Z,35.43
2023-03-22T13:05:24.513Z,35.52
2023-03-22T13:06:26.459Z,35.53
2023-03-22T13:07:28.268Z,35.15
2023-03-22T13:08:32.124Z,34.68
2023-03-22T13:09:33.693Z,34.90
2023-03-22T13:10:35.517Z,35.23
2023-03-22T13:11:37.216Z,35.42
2023-03-22T13:12:39.011Z,35.38
2023-03-22T13:13:40.860Z,35.37
2023-03-22T13:14:42.659Z,35.20
2023-03-22T13:15:44.487Z,35.37
2023-03-22T13:16:46.399Z,35.48